sensor_id;sensor_type;location;lat;lon;timestamp;P1;durP1;ratioP1;P2;durP2;ratioP2
73893;SDS011;62699;50.534;12.784;2023-12-14T00:01:19;47.85;;;14.70;;
73893;SDS011;62699;50.534;12.784;2023-12-14T00:06:20;34.22;;;9.50;;
73893;SDS011;62699;50.534;12.784;2023-12-14T00:11:20;316.48;;;38.55;;
73893;SDS011;62699;50.534;12.784;2023-12-14T00:16:20;62.08;;;34.47;;
73893;SDS011;62699;50.534;12.784;2023-12-14T00:21:21;51.85;;;27.65;;
73893;SDS011;62699;50.534;12.784;2023-12-14T00:26:21;61.80;;;22.20;;
73893;SDS011;62699;50.534;12.784;2023-12-14T00:31:21;57.00;;;31.10;;
73893;SDS011;62699;50.534;12.784;2023-12-14T00:36:21;38.10;;;18.42;;
73893;SDS011;62699;50.534;12.784;2023-12-14T00:41:22;51.60;;;43.08;;
73893;SDS011;62699;50.534;12.784;2023-12-14T00:46:22;40.97;;;20.58;;
73893;SDS011;62699;50.534;12.784;2023-12-14T00:51:22;47.20;;;41.55;;
73893;SDS011;62699;50.534;12.784;2023-12-14T00:56:22;59.67;;;53.42;;
73893;SDS011;62699;50.534;12.784;2023-12-14T01:01:23;56.65;;;48.17;;
73893;SDS011;62699;50.534;12.784;2023-12-14T01:06:23;65.50;;;51.17;;
73893;SDS011;62699;50.534;12.784;2023-12-14T01:11:23;59.05;;;34.05;;
73893;SDS011;62699;50.534;12.784;2023-12-14T01:16:25;55.95;;;27.17;;
73893;SDS011;62699;50.534;12.784;2023-12-14T01:21:26;59.05;;;37.70;;
73893;SDS011;62699;50.534;12.784;2023-12-14T01:26:26;37.97;;;13.52;;
73893;SDS011;62699;50.534;12.784;2023-12-14T01:31:27;52.25;;;40.40;;
73893;SDS011;62699;50.534;12.784;2023-12-14T01:36:27;51.05;;;39.38;;
73893;SDS011;62699;50.534;12.784;2023-12-14T01:41:27;50.47;;;35.42;;
73893;SDS011;62699;50.534;12.784;2023-12-14T01:46:28;50.58;;;27.52;;
73893;SDS011;62699;50.534;12.784;2023-12-14T01:51:28;35.22;;;10.20;;
73893;SDS011;62699;50.534;12.784;2023-12-14T01:56:28;26.67;;;5.72;;
73893;SDS011;62699;50.534;12.784;2023-12-14T02:06:35;48.50;;;14.30;;
73893;SDS011;62699;50.534;12.784;2023-12-14T02:11:35;44.80;;;30.30;;
73893;SDS011;62699;50.534;12.784;2023-12-14T02:16:36;46.15;;;16.65;;
73893;SDS011;62699;50.534;12.784;2023-12-14T02:21:38;33.63;;;11.00;;
73893;SDS011;62699;50.534;12.784;2023-12-14T02:26:38;41.15;;;17.00;;
73893;SDS011;62699;50.534;12.784;2023-12-14T02:31:38;39.88;;;7.70;;
73893;SDS011;62699;50.534;12.784;2023-12-14T02:36:39;35.92;;;6.65;;
73893;SDS011;62699;50.534;12.784;2023-12-14T02:41:39;34.22;;;5.63;;
73893;SDS011;62699;50.534;12.784;2023-12-14T02:46:39;32.67;;;7.32;;
73893;SDS011;62699;50.534;12.784;2023-12-14T02:51:39;41.40;;;10.43;;
73893;SDS011;62699;50.534;12.784;2023-12-14T02:56:40;49.33;;;16.23;;
73893;SDS011;62699;50.534;12.784;2023-12-14T03:01:40;57.50;;;37.70;;
73893;SDS011;62699;50.534;12.784;2023-12-14T03:06:40;42.97;;;8.10;;
73893;SDS011;62699;50.534;12.784;2023-12-14T03:11:40;48.15;;;11.02;;
73893;SDS011;62699;50.534;12.784;2023-12-14T03:16:41;37.35;;;17.92;;
73893;SDS011;62699;50.534;12.784;2023-12-14T03:21:41;38.80;;;16.80;;
73893;SDS011;62699;50.534;12.784;2023-12-14T03:26:44;44.47;;;19.45;;
73893;SDS011;62699;50.534;12.784;2023-12-14T03:31:44;38.28;;;7.00;;
73893;SDS011;62699;50.534;12.784;2023-12-14T03:36:45;41.30;;;13.10;;
73893;SDS011;62699;50.534;12.784;2023-12-14T03:41:45;44.13;;;25.67;;
73893;SDS011;62699;50.534;12.784;2023-12-14T03:46:46;54.30;;;33.08;;
73893;SDS011;62699;50.534;12.784;2023-12-14T03:51:46;62.60;;;53.25;;
73893;SDS011;62699;50.534;12.784;2023-12-14T03:56:46;75.30;;;51.17;;
73893;SDS011;62699;50.534;12.784;2023-12-14T04:01:46;83.07;;;70.63;;
73893;SDS011;62699;50.534;12.784;2023-12-14T04:06:47;59.17;;;27.27;;
73893;SDS011;62699;50.534;12.784;2023-12-14T04:11:47;53.20;;;30.17;;
73893;SDS011;62699;50.534;12.784;2023-12-14T04:16:47;70.82;;;53.00;;
73893;SDS011;62699;50.534;12.784;2023-12-14T04:21:47;40.17;;;16.13;;
73893;SDS011;62699;50.534;12.784;2023-12-14T04:26:48;55.03;;;32.95;;
73893;SDS011;62699;50.534;12.784;2023-12-14T04:31:48;74.65;;;66.70;;
73893;SDS011;62699;50.534;12.784;2023-12-14T04:36:48;77.70;;;60.95;;
73893;SDS011;62699;50.534;12.784;2023-12-14T04:41:50;51.88;;;46.63;;
73893;SDS011;62699;50.534;12.784;2023-12-14T04:46:50;77.22;;;69.60;;
73893;SDS011;62699;50.534;12.784;2023-12-14T04:51:51;56.67;;;32.17;;
73893;SDS011;62699;50.534;12.784;2023-12-14T04:56:51;119.57;;;57.72;;
73893;SDS011;62699;50.534;12.784;2023-12-14T05:01:51;63.38;;;46.85;;
73893;SDS011;62699;50.534;12.784;2023-12-14T05:06:52;87.32;;;57.15;;
73893;SDS011;62699;50.534;12.784;2023-12-14T05:11:52;62.67;;;53.72;;
73893;SDS011;62699;50.534;12.784;2023-12-14T05:16:53;93.50;;;82.97;;
73893;SDS011;62699;50.534;12.784;2023-12-14T05:21:53;50.47;;;39.20;;
73893;SDS011;62699;50.534;12.784;2023-12-14T05:26:54;65.97;;;30.45;;
73893;SDS011;62699;50.534;12.784;2023-12-14T05:31:54;42.65;;;8.90;;
73893;SDS011;62699;50.534;12.784;2023-12-14T05:36:54;53.55;;;12.50;;
73893;SDS011;62699;50.534;12.784;2023-12-14T05:41:55;38.40;;;7.45;;
73893;SDS011;62699;50.534;12.784;2023-12-14T05:46:55;42.70;;;8.07;;
73893;SDS011;62699;50.534;12.784;2023-12-14T05:51:55;47.53;;;12.85;;
73893;SDS011;62699;50.534;12.784;2023-12-14T05:56:58;58.17;;;11.98;;
73893;SDS011;62699;50.534;12.784;2023-12-14T06:01:59;48.08;;;10.65;;
73893;SDS011;62699;50.534;12.784;2023-12-14T06:07:00;42.15;;;7.45;;
73893;SDS011;62699;50.534;12.784;2023-12-14T06:12:00;36.90;;;9.00;;
73893;SDS011;62699;50.534;12.784;2023-12-14T06:17:01;46.42;;;8.63;;
73893;SDS011;62699;50.534;12.784;2023-12-14T06:22:02;35.42;;;8.25;;
73893;SDS011;62699;50.534;12.784;2023-12-14T06:27:02;67.04;;;21.38;;
73893;SDS011;62699;50.534;12.784;2023-12-14T06:32:03;70.95;;;23.58;;
73893;SDS011;62699;50.534;12.784;2023-12-14T06:37:04;51.80;;;21.33;;
73893;SDS011;62699;50.534;12.784;2023-12-14T06:42:04;53.42;;;15.57;;
73893;SDS011;62699;50.534;12.784;2023-12-14T06:47:05;58.78;;;14.55;;
73893;SDS011;62699;50.534;12.784;2023-12-14T06:52:06;42.78;;;10.10;;
73893;SDS011;62699;50.534;12.784;2023-12-14T06:57:07;55.25;;;12.05;;
73893;SDS011;62699;50.534;12.784;2023-12-14T07:02:08;47.17;;;19.80;;
73893;SDS011;62699;50.534;12.784;2023-12-14T07:07:08;61.30;;;36.78;;
73893;SDS011;62699;50.534;12.784;2023-12-14T07:12:08;46.08;;;18.25;;
73893;SDS011;62699;50.534;12.784;2023-12-14T07:17:11;93.93;;;59.78;;
73893;SDS011;62699;50.534;12.784;2023-12-14T07:22:11;67.28;;;34.95;;
73893;SDS011;62699;50.534;12.784;2023-12-14T07:27:12;61.28;;;32.53;;
73893;SDS011;62699;50.534;12.784;2023-12-14T07:32:12;45.38;;;17.65;;
73893;SDS011;62699;50.534;12.784;2023-12-14T07:37:12;55.13;;;21.92;;
73893;SDS011;62699;50.534;12.784;2023-12-14T07:42:13;49.08;;;14.75;;
73893;SDS011;62699;50.534;12.784;2023-12-14T07:47:19;66.57;;;29.67;;
73893;SDS011;62699;50.534;12.784;2023-12-14T07:52:19;55.13;;;16.73;;
73893;SDS011;62699;50.534;12.784;2023-12-14T07:57:19;55.55;;;24.35;;
73893;SDS011;62699;50.534;12.784;2023-12-14T08:02:20;59.63;;;21.88;;
73893;SDS011;62699;50.534;12.784;2023-12-14T08:07:20;147.93;;;72.85;;
73893;SDS011;62699;50.534;12.784;2023-12-14T08:12:21;43.05;;;12.20;;
73893;SDS011;62699;50.534;12.784;2023-12-14T08:17:22;42.70;;;19.10;;
73893;SDS011;62699;50.534;12.784;2023-12-14T08:22:22;39.65;;;10.32;;
73893;SDS011;62699;50.534;12.784;2023-12-14T08:27:22;42.45;;;18.75;;
73893;SDS011;62699;50.534;12.784;2023-12-14T08:32:22;53.13;;;35.35;;
73893;SDS011;62699;50.534;12.784;2023-12-14T08:37:23;53.40;;;23.58;;
73893;SDS011;62699;50.534;12.784;2023-12-14T08:42:23;48.15;;;14.63;;
73893;SDS011;62699;50.534;12.784;2023-12-14T08:47:23;63.50;;;28.30;;
73893;SDS011;62699;50.534;12.784;2023-12-14T08:52:24;73.82;;;55.35;;
73893;SDS011;62699;50.534;12.784;2023-12-14T08:57:24;62.44;;;55.76;;
73893;SDS011;62699;50.534;12.784;2023-12-14T09:02:24;54.50;;;40.58;;
73893;SDS011;62699;50.534;12.784;2023-12-14T09:07:24;74.95;;;46.75;;
73893;SDS011;62699;50.534;12.784;2023-12-14T09:12:25;63.95;;;55.97;;
73893;SDS011;62699;50.534;12.784;2023-12-14T09:17:25;90.53;;;81.20;;
73893;SDS011;62699;50.534;12.784;2023-12-14T09:22:26;96.38;;;86.57;;
73893;SDS011;62699;50.534;12.784;2023-12-14T09:27:27;84.00;;;74.43;;
73893;SDS011;62699;50.534;12.784;2023-12-14T09:32:27;116.72;;;105.75;;
73893;SDS011;62699;50.534;12.784;2023-12-14T09:37:27;122.32;;;110.80;;
73893;SDS011;62699;50.534;12.784;2023-12-14T09:42:28;100.80;;;90.93;;
73893;SDS011;62699;50.534;12.784;2023-12-14T09:47:28;54.05;;;34.90;;
73893;SDS011;62699;50.534;12.784;2023-12-14T09:52:29;63.60;;;55.15;;
73893;SDS011;62699;50.534;12.784;2023-12-14T09:57:29;56.50;;;26.60;;
73893;SDS011;62699;50.534;12.784;2023-12-14T10:02:30;27.42;;;8.15;;
73893;SDS011;62699;50.534;12.784;2023-12-14T10:07:30;21.67;;;8.00;;
73893;SDS011;62699;50.534;12.784;2023-12-14T10:12:31;17.58;;;9.35;;
73893;SDS011;62699;50.534;12.784;2023-12-14T10:17:31;8.68;;;4.93;;
73893;SDS011;62699;50.534;12.784;2023-12-14T10:22:32;12.90;;;6.05;;
73893;SDS011;62699;50.534;12.784;2023-12-14T10:27:32;19.80;;;12.35;;
73893;SDS011;62699;50.534;12.784;2023-12-14T10:32:32;10.15;;;5.55;;
73893;SDS011;62699;50.534;12.784;2023-12-14T10:37:35;14.02;;;6.50;;
73893;SDS011;62699;50.534;12.784;2023-12-14T10:42:37;23.33;;;10.90;;
73893;SDS011;62699;50.534;12.784;2023-12-14T10:47:42;9.35;;;5.13;;
73893;SDS011;62699;50.534;12.784;2023-12-14T10:52:44;11.13;;;5.28;;
73893;SDS011;62699;50.534;12.784;2023-12-14T10:57:45;9.15;;;4.68;;
73893;SDS011;62699;50.534;12.784;2023-12-14T11:02:46;11.48;;;5.30;;
73893;SDS011;62699;50.534;12.784;2023-12-14T11:23:10;16.60;;;9.80;;
73893;SDS011;62699;50.534;12.784;2023-12-14T11:28:17;12.02;;;6.32;;
73893;SDS011;62699;50.534;12.784;2023-12-14T11:33:19;9.35;;;4.70;;
73893;SDS011;62699;50.534;12.784;2023-12-14T11:38:19;12.57;;;6.65;;
73893;SDS011;62699;50.534;12.784;2023-12-14T11:43:20;8.27;;;4.53;;
73893;SDS011;62699;50.534;12.784;2023-12-14T11:48:21;13.90;;;7.80;;
73893;SDS011;62699;50.534;12.784;2023-12-14T11:53:22;7.50;;;4.95;;
73893;SDS011;62699;50.534;12.784;2023-12-14T11:58:23;6.78;;;3.50;;
73893;SDS011;62699;50.534;12.784;2023-12-14T12:03:24;7.35;;;4.65;;
73893;SDS011;62699;50.534;12.784;2023-12-14T12:08:24;8.27;;;4.47;;
73893;SDS011;62699;50.534;12.784;2023-12-14T12:13:25;10.93;;;7.13;;
73893;SDS011;62699;50.534;12.784;2023-12-14T12:18:25;15.18;;;9.13;;
73893;SDS011;62699;50.534;12.784;2023-12-14T12:23:26;7.75;;;4.05;;
73893;SDS011;62699;50.534;12.784;2023-12-14T12:28:26;6.97;;;4.68;;
73893;SDS011;62699;50.534;12.784;2023-12-14T12:33:27;8.70;;;4.88;;
73893;SDS011;62699;50.534;12.784;2023-12-14T12:38:27;8.35;;;4.25;;
73893;SDS011;62699;50.534;12.784;2023-12-14T12:43:27;9.10;;;4.30;;
73893;SDS011;62699;50.534;12.784;2023-12-14T12:48:28;9.75;;;5.70;;
73893;SDS011;62699;50.534;12.784;2023-12-14T12:53:28;27.92;;;17.70;;
73893;SDS011;62699;50.534;12.784;2023-12-14T12:58:29;18.23;;;8.23;;
73893;SDS011;62699;50.534;12.784;2023-12-14T13:03:29;11.77;;;5.32;;
73893;SDS011;62699;50.534;12.784;2023-12-14T13:08:29;8.73;;;4.97;;
73893;SDS011;62699;50.534;12.784;2023-12-14T13:13:30;16.08;;;11.65;;
73893;SDS011;62699;50.534;12.784;2023-12-14T13:18:31;12.45;;;6.93;;
73893;SDS011;62699;50.534;12.784;2023-12-14T13:23:32;21.38;;;10.23;;
73893;SDS011;62699;50.534;12.784;2023-12-14T13:28:33;17.23;;;7.60;;
73893;SDS011;62699;50.534;12.784;2023-12-14T13:33:33;20.55;;;12.52;;
73893;SDS011;62699;50.534;12.784;2023-12-14T13:38:34;10.25;;;5.10;;
73893;SDS011;62699;50.534;12.784;2023-12-14T13:43:36;23.10;;;12.18;;
73893;SDS011;62699;50.534;12.784;2023-12-14T13:48:36;12.18;;;5.75;;
73893;SDS011;62699;50.534;12.784;2023-12-14T13:53:36;9.95;;;5.25;;
73893;SDS011;62699;50.534;12.784;2023-12-14T13:58:36;9.48;;;4.97;;
73893;SDS011;62699;50.534;12.784;2023-12-14T14:03:40;35.15;;;19.30;;
73893;SDS011;62699;50.534;12.784;2023-12-14T14:08:41;26.17;;;15.75;;
73893;SDS011;62699;50.534;12.784;2023-12-14T14:13:41;19.85;;;12.75;;
73893;SDS011;62699;50.534;12.784;2023-12-14T14:18:42;20.95;;;11.27;;
73893;SDS011;62699;50.534;12.784;2023-12-14T14:23:42;14.22;;;9.22;;
73893;SDS011;62699;50.534;12.784;2023-12-14T14:28:42;17.55;;;8.15;;
73893;SDS011;62699;50.534;12.784;2023-12-14T14:33:42;16.90;;;10.00;;
73893;SDS011;62699;50.534;12.784;2023-12-14T14:38:44;14.25;;;8.15;;
73893;SDS011;62699;50.534;12.784;2023-12-14T14:43:44;18.48;;;10.88;;
73893;SDS011;62699;50.534;12.784;2023-12-14T14:48:45;16.27;;;10.15;;
73893;SDS011;62699;50.534;12.784;2023-12-14T14:53:45;13.75;;;7.82;;
73893;SDS011;62699;50.534;12.784;2023-12-14T14:58:47;14.52;;;7.20;;
73893;SDS011;62699;50.534;12.784;2023-12-14T15:03:47;19.33;;;9.18;;
73893;SDS011;62699;50.534;12.784;2023-12-14T15:08:47;14.43;;;7.10;;
73893;SDS011;62699;50.534;12.784;2023-12-14T15:13:48;20.00;;;11.52;;
73893;SDS011;62699;50.534;12.784;2023-12-14T15:18:48;18.48;;;10.30;;
73893;SDS011;62699;50.534;12.784;2023-12-14T15:23:48;28.23;;;16.02;;
73893;SDS011;62699;50.534;12.784;2023-12-14T15:28:49;15.25;;;8.52;;
73893;SDS011;62699;50.534;12.784;2023-12-14T15:33:49;14.23;;;8.27;;
73893;SDS011;62699;50.534;12.784;2023-12-14T15:38:49;15.02;;;7.65;;
73893;SDS011;62699;50.534;12.784;2023-12-14T15:43:49;12.07;;;6.88;;
73893;SDS011;62699;50.534;12.784;2023-12-14T15:48:50;12.68;;;5.72;;
73893;SDS011;62699;50.534;12.784;2023-12-14T15:53:50;11.55;;;5.65;;
73893;SDS011;62699;50.534;12.784;2023-12-14T15:58:51;13.32;;;7.97;;
73893;SDS011;62699;50.534;12.784;2023-12-14T16:03:51;12.36;;;6.76;;
73893;SDS011;62699;50.534;12.784;2023-12-14T16:08:51;11.63;;;6.05;;
73893;SDS011;62699;50.534;12.784;2023-12-14T16:13:51;9.57;;;5.10;;
73893;SDS011;62699;50.534;12.784;2023-12-14T16:18:52;45.60;;;35.15;;
73893;SDS011;62699;50.534;12.784;2023-12-14T16:23:53;12.23;;;6.93;;
73893;SDS011;62699;50.534;12.784;2023-12-14T16:28:53;13.68;;;7.40;;
73893;SDS011;62699;50.534;12.784;2023-12-14T16:33:53;25.30;;;16.20;;
73893;SDS011;62699;50.534;12.784;2023-12-14T16:38:53;26.55;;;17.67;;
73893;SDS011;62699;50.534;12.784;2023-12-14T16:43:54;35.70;;;20.50;;
73893;SDS011;62699;50.534;12.784;2023-12-14T16:48:54;20.88;;;11.70;;
73893;SDS011;62699;50.534;12.784;2023-12-14T16:53:54;19.58;;;10.60;;
73893;SDS011;62699;50.534;12.784;2023-12-14T16:58:56;22.35;;;11.68;;
73893;SDS011;62699;50.534;12.784;2023-12-14T17:03:57;22.73;;;11.63;;
73893;SDS011;62699;50.534;12.784;2023-12-14T17:08:58;38.35;;;19.20;;
73893;SDS011;62699;50.534;12.784;2023-12-14T17:13:59;48.00;;;26.75;;
73893;SDS011;62699;50.534;12.784;2023-12-14T17:18:59;51.70;;;27.05;;
73893;SDS011;62699;50.534;12.784;2023-12-14T17:23:59;21.80;;;11.27;;
73893;SDS011;62699;50.534;12.784;2023-12-14T17:29:01;25.50;;;13.23;;
73893;SDS011;62699;50.534;12.784;2023-12-14T17:34:06;30.92;;;16.75;;
73893;SDS011;62699;50.534;12.784;2023-12-14T17:39:06;70.78;;;29.02;;
73893;SDS011;62699;50.534;12.784;2023-12-14T17:44:06;25.17;;;12.75;;
73893;SDS011;62699;50.534;12.784;2023-12-14T17:49:07;22.80;;;12.55;;
73893;SDS011;62699;50.534;12.784;2023-12-14T17:54:08;20.33;;;10.48;;
73893;SDS011;62699;50.534;12.784;2023-12-14T17:59:08;57.28;;;31.40;;
73893;SDS011;62699;50.534;12.784;2023-12-14T18:04:09;24.58;;;14.57;;
73893;SDS011;62699;50.534;12.784;2023-12-14T18:09:09;24.52;;;13.65;;
73893;SDS011;62699;50.534;12.784;2023-12-14T18:14:10;22.50;;;12.02;;
73893;SDS011;62699;50.534;12.784;2023-12-14T18:19:10;19.02;;;9.77;;
73893;SDS011;62699;50.534;12.784;2023-12-14T18:24:10;15.82;;;8.77;;
73893;SDS011;62699;50.534;12.784;2023-12-14T18:29:11;15.08;;;8.38;;
73893;SDS011;62699;50.534;12.784;2023-12-14T18:34:11;14.18;;;7.07;;
73893;SDS011;62699;50.534;12.784;2023-12-14T18:39:11;15.35;;;8.05;;
73893;SDS011;62699;50.534;12.784;2023-12-14T18:44:12;16.77;;;8.90;;
73893;SDS011;62699;50.534;12.784;2023-12-14T18:49:12;14.63;;;7.82;;
73893;SDS011;62699;50.534;12.784;2023-12-14T18:54:12;16.48;;;8.15;;
73893;SDS011;62699;50.534;12.784;2023-12-14T18:59:13;18.05;;;8.38;;
73893;SDS011;62699;50.534;12.784;2023-12-14T19:04:13;18.55;;;9.15;;
73893;SDS011;62699;50.534;12.784;2023-12-14T19:09:13;19.66;;;8.52;;
73893;SDS011;62699;50.534;12.784;2023-12-14T19:14:14;18.26;;;7.64;;
73893;SDS011;62699;50.534;12.784;2023-12-14T19:19:17;23.30;;;11.82;;
73893;SDS011;62699;50.534;12.784;2023-12-14T19:24:17;21.75;;;8.98;;
73893;SDS011;62699;50.534;12.784;2023-12-14T19:29:18;22.65;;;9.48;;
73893;SDS011;62699;50.534;12.784;2023-12-14T19:34:18;20.70;;;9.10;;
73893;SDS011;62699;50.534;12.784;2023-12-14T19:39:18;23.40;;;9.60;;
73893;SDS011;62699;50.534;12.784;2023-12-14T19:44:19;21.55;;;8.60;;
73893;SDS011;62699;50.534;12.784;2023-12-14T19:49:19;38.97;;;16.58;;
73893;SDS011;62699;50.534;12.784;2023-12-14T19:54:20;30.70;;;11.07;;
73893;SDS011;62699;50.534;12.784;2023-12-14T19:59:20;76.10;;;31.38;;
73893;SDS011;62699;50.534;12.784;2023-12-14T20:04:21;82.07;;;35.80;;
73893;SDS011;62699;50.534;12.784;2023-12-14T20:09:21;49.63;;;22.92;;
73893;SDS011;62699;50.534;12.784;2023-12-14T20:14:21;27.05;;;11.52;;
73893;SDS011;62699;50.534;12.784;2023-12-14T20:19:22;43.30;;;18.67;;
73893;SDS011;62699;50.534;12.784;2023-12-14T20:24:22;65.03;;;27.52;;
73893;SDS011;62699;50.534;12.784;2023-12-14T20:29:22;51.13;;;21.55;;
73893;SDS011;62699;50.534;12.784;2023-12-14T20:34:23;50.25;;;24.23;;
73893;SDS011;62699;50.534;12.784;2023-12-14T20:39:23;52.72;;;21.10;;
73893;SDS011;62699;50.534;12.784;2023-12-14T20:44:23;39.70;;;15.13;;
73893;SDS011;62699;50.534;12.784;2023-12-14T20:49:23;48.28;;;20.63;;
73893;SDS011;62699;50.534;12.784;2023-12-14T20:54:23;62.38;;;25.85;;
73893;SDS011;62699;50.534;12.784;2023-12-14T20:59:24;28.95;;;11.68;;
73893;SDS011;62699;50.534;12.784;2023-12-14T21:04:24;25.42;;;12.05;;
73893;SDS011;62699;50.534;12.784;2023-12-14T21:09:24;32.05;;;13.90;;
73893;SDS011;62699;50.534;12.784;2023-12-14T21:14:25;181.63;;;35.05;;
73893;SDS011;62699;50.534;12.784;2023-12-14T21:19:25;36.45;;;14.57;;
73893;SDS011;62699;50.534;12.784;2023-12-14T21:24:26;36.50;;;12.18;;
73893;SDS011;62699;50.534;12.784;2023-12-14T21:29:28;33.03;;;13.40;;
73893;SDS011;62699;50.534;12.784;2023-12-14T21:34:28;30.50;;;12.27;;
73893;SDS011;62699;50.534;12.784;2023-12-14T21:39:29;30.50;;;10.55;;
73893;SDS011;62699;50.534;12.784;2023-12-14T21:44:29;27.27;;;9.00;;
73893;SDS011;62699;50.534;12.784;2023-12-14T21:49:29;29.73;;;9.93;;
73893;SDS011;62699;50.534;12.784;2023-12-14T21:54:29;26.10;;;9.02;;
73893;SDS011;62699;50.534;12.784;2023-12-14T21:59:29;26.05;;;8.50;;
73893;SDS011;62699;50.534;12.784;2023-12-14T22:04:31;28.88;;;9.00;;
73893;SDS011;62699;50.534;12.784;2023-12-14T22:09:31;30.50;;;9.60;;
73893;SDS011;62699;50.534;12.784;2023-12-14T22:14:31;27.95;;;8.02;;
73893;SDS011;62699;50.534;12.784;2023-12-14T22:19:35;33.00;;;9.48;;
73893;SDS011;62699;50.534;12.784;2023-12-14T22:24:38;30.30;;;9.60;;
73893;SDS011;62699;50.534;12.784;2023-12-14T22:29:38;29.05;;;8.18;;
73893;SDS011;62699;50.534;12.784;2023-12-14T22:34:38;31.98;;;8.70;;
73893;SDS011;62699;50.534;12.784;2023-12-14T22:39:39;30.17;;;8.15;;
73893;SDS011;62699;50.534;12.784;2023-12-14T22:44:39;34.90;;;9.05;;
73893;SDS011;62699;50.534;12.784;2023-12-14T22:49:39;29.73;;;7.85;;
73893;SDS011;62699;50.534;12.784;2023-12-14T22:54:41;29.67;;;7.53;;
73893;SDS011;62699;50.534;12.784;2023-12-14T22:59:41;24.65;;;8.13;;
73893;SDS011;62699;50.534;12.784;2023-12-14T23:04:41;31.55;;;8.77;;
73893;SDS011;62699;50.534;12.784;2023-12-14T23:09:41;37.85;;;9.93;;
73893;SDS011;62699;50.534;12.784;2023-12-14T23:14:42;30.42;;;8.27;;
73893;SDS011;62699;50.534;12.784;2023-12-14T23:19:42;33.28;;;7.95;;
73893;SDS011;62699;50.534;12.784;2023-12-14T23:24:42;42.17;;;11.00;;
73893;SDS011;62699;50.534;12.784;2023-12-14T23:29:43;38.97;;;8.55;;
73893;SDS011;62699;50.534;12.784;2023-12-14T23:34:43;34.42;;;8.15;;
73893;SDS011;62699;50.534;12.784;2023-12-14T23:39:43;30.92;;;7.93;;
73893;SDS011;62699;50.534;12.784;2023-12-14T23:44:43;28.10;;;7.30;;
73893;SDS011;62699;50.534;12.784;2023-12-14T23:49:44;24.13;;;6.63;;
73893;SDS011;62699;50.534;12.784;2023-12-14T23:54:44;29.10;;;7.35;;
73893;SDS011;62699;50.534;12.784;2023-12-14T23:59:44;31.55;;;8.00;;
